Time;durP1;ratioP1;P1;durP2;ratioP2;P2;SDS_P1;SDS_P2;PMS_P1;PMS_P2;Temp;Humidity;BMP_temperature;BMP_pressure;BME280_temperature;BME280_humidity;BME280_pressure;Samples;Min_cycle;Max_cycle;Signal;HPM_P1;HPM_P2
2022/08/18 00:00:29;;;;;;;;;;;;;;;25.88;46.75;99448.59;2082672;28;19916;-49
2022/08/18 00:01:30;;;;;;;;;;;;;;;25.88;46.90;99451.38;2082579;28;20011;-46
2022/08/18 00:02:30;;;;;;;;;;;;;;;25.87;46.68;99446.88;2074751;28;20426;-48
2022/08/18 00:03:31;;;;;;;;;;;;;;;25.88;46.97;99451.38;2074904;28;20334;-47
2022/08/18 00:04:31;;;;;;;;;;;;;;;25.87;46.72;99445.00;2082232;28;19955;-48
2022/08/18 00:05:33;;;;;;;;;;;;;;;25.88;46.67;99443.09;2084229;28;19980;-48
2022/08/18 00:06:33;;;;;;;;;;;;;;;25.87;46.98;99445.00;2086198;28;19921;-47
2022/08/18 00:07:33;;;;;;;;;;;;;;;25.88;46.76;99440.31;2078877;28;20210;-48
2022/08/18 00:08:34;;;;;;;;;;;;;;;25.87;46.74;99433.09;2083989;28;19916;-48
2022/08/18 00:09:35;;;;;;;;;;;;;;;25.87;47.00;99433.09;2085228;28;19917;-47
2022/08/18 00:10:39;;;;;;;;;;;;;;;25.87;46.98;99438.59;2086482;28;19943;-47
2022/08/18 00:11:41;;;;;;;;;;;;;;;25.88;46.98;99443.09;2073844;28;19984;-48
2022/08/18 00:12:42;;;;;;;;;;;;;;;25.87;47.03;99444.13;2077404;28;19913;-46
2022/08/18 00:13:42;;;;;;;;;;;;;;;25.88;46.88;99440.31;2081162;28;19920;-47
2022/08/18 00:14:43;;;;;;;;;;;;;;;25.87;46.77;99433.97;2084935;28;19905;-47
2022/08/18 00:15:44;;;;;;;;;;;;;;;25.87;46.98;99433.97;2082208;28;19924;-47
2022/08/18 00:16:44;;;;;;;;;;;;;;;25.87;46.70;99430.31;2086543;28;19969;-48
2022/08/18 00:17:45;;;;;;;;;;;;;;;25.87;46.94;99427.56;2082935;28;19916;-47
2022/08/18 00:18:45;;;;;;;;;;;;;;;25.86;46.87;99421.19;2085780;28;19927;-48
2022/08/18 00:19:46;;;;;;;;;;;;;;;25.86;47.08;99428.63;2086162;28;19927;-47
2022/08/18 00:20:46;;;;;;;;;;;;;;;25.87;46.92;99430.31;2086340;28;19917;-48
2022/08/18 00:21:46;;;;;;;;;;;;;;;25.86;47.07;99431.41;2095362;28;20023;-48
2022/08/18 00:22:47;;;;;;;;;;;;;;;25.86;46.81;99434.16;2082359;28;19969;-47
2022/08/18 00:23:47;;;;;;;;;;;;;;;25.85;46.92;99429.69;2085327;28;19916;-47
2022/08/18 00:24:49;;;;;;;;;;;;;;;25.85;47.11;99435.19;2085543;28;19912;-48
2022/08/18 00:25:49;;;;;;;;;;;;;;;25.85;47.20;99429.69;2083589;28;20492;-47
2022/08/18 00:26:50;;;;;;;;;;;;;;;25.86;47.14;99436.91;2084035;28;19915;-48
2022/08/18 00:27:50;;;;;;;;;;;;;;;25.85;47.07;99432.44;2085749;28;19917;-46
2022/08/18 00:28:50;;;;;;;;;;;;;;;25.85;47.03;99435.19;2084142;28;19908;-49
2022/08/18 00:29:51;;;;;;;;;;;;;;;25.84;47.26;99437.09;2080836;28;19967;-46
2022/08/18 00:30:52;;;;;;;;;;;;;;;25.84;47.30;99436.25;2085633;28;19962;-48
2022/08/18 00:31:52;;;;;;;;;;;;;;;25.84;47.01;99439.00;2084605;28;19909;-48
2022/08/18 00:32:54;;;;;;;;;;;;;;;25.84;47.15;99439.00;2078539;28;19972;-48
2022/08/18 00:33:54;;;;;;;;;;;;;;;25.83;47.16;99435.41;2083324;28;20006;-48
2022/08/18 00:34:55;;;;;;;;;;;;;;;25.84;47.07;99439.84;2087028;28;19921;-48
2022/08/18 00:35:55;;;;;;;;;;;;;;;25.85;46.97;99443.47;2083387;28;20625;-49
2022/08/18 00:36:55;;;;;;;;;;;;;;;25.85;46.91;99435.19;2077267;28;19932;-47
2022/08/18 00:37:57;;;;;;;;;;;;;;;25.85;46.98;99440.72;2083883;28;19917;-48
2022/08/18 00:38:57;;;;;;;;;;;;;;;25.85;47.14;99429.69;2083512;28;19916;-48
2022/08/18 00:39:58;;;;;;;;;;;;;;;25.84;47.14;99433.47;2079885;28;19920;-48
2022/08/18 00:40:58;;;;;;;;;;;;;;;25.85;47.00;99436.06;2085285;28;19916;-47
2022/08/18 00:41:59;;;;;;;;;;;;;;;25.85;47.13;99440.72;2082809;28;20322;-46
2022/08/18 00:43:01;;;;;;;;;;;;;;;25.83;47.00;99438.16;2073895;28;19951;-47
2022/08/18 00:44:03;;;;;;;;;;;;;;;25.84;47.12;99433.47;2079140;28;19948;-47
2022/08/18 00:45:04;;;;;;;;;;;;;;;25.85;46.93;99440.72;2082124;28;20238;-48
2022/08/18 00:46:15;;;;;;;;;;;;;;;25.85;47.08;99440.72;2085657;28;20156;-46
2022/08/18 00:47:15;;;;;;;;;;;;;;;25.85;46.88;99443.47;2079107;28;19917;-47
2022/08/18 00:48:16;;;;;;;;;;;;;;;25.85;47.17;99440.72;2076513;28;19923;-47
2022/08/18 00:49:17;;;;;;;;;;;;;;;25.85;46.97;99443.47;2079591;28;19917;-47
2022/08/18 00:50:22;;;;;;;;;;;;;;;25.85;47.00;99443.47;2086652;28;20006;-47
2022/08/18 00:51:36;;;;;;;;;;;;;;;25.85;46.95;99440.72;2080442;28;19916;-47
2022/08/18 00:52:37;;;;;;;;;;;;;;;25.85;46.86;99443.47;2082172;28;20331;-48
2022/08/18 00:53:48;;;;;;;;;;;;;;;25.85;46.88;99440.72;2082729;28;20609;-47
2022/08/18 00:54:49;;;;;;;;;;;;;;;25.85;47.17;99444.34;2081522;28;19935;-49
2022/08/18 00:55:50;;;;;;;;;;;;;;;25.83;47.23;99449.19;2086157;28;19920;-47
2022/08/18 00:56:54;;;;;;;;;;;;;;;25.84;47.07;99450.03;2088814;28;20256;-47
2022/08/18 00:58:00;;;;;;;;;;;;;;;25.83;47.23;99449.19;2084862;28;19912;-47
2022/08/18 00:59:05;;;;;;;;;;;;;;;25.85;46.86;99446.25;2080135;28;20442;-47
2022/08/18 01:00:10;;;;;;;;;;;;;;;25.84;47.21;99452.81;2084252;28;19912;-48
2022/08/18 01:01:11;;;;;;;;;;;;;;;25.83;47.21;99449.19;2083602;28;19917;-48
2022/08/18 01:02:17;;;;;;;;;;;;;;;25.84;47.19;99450.03;2084280;28;19912;-47
2022/08/18 01:03:20;;;;;;;;;;;;;;;25.84;47.05;99447.28;2087120;28;19917;-47
2022/08/18 01:04:26;;;;;;;;;;;;;;;25.83;47.20;99446.44;2075796;28;19913;-51
2022/08/18 01:05:39;;;;;;;;;;;;;;;25.84;47.02;99450.03;2075865;28;19920;-48
2022/08/18 01:07:00;;;;;;;;;;;;;;;25.83;46.99;99451.13;2086317;28;19991;-47
2022/08/18 01:08:01;;;;;;;;;;;;;;;25.83;47.26;99449.19;2080696;28;19912;-48
2022/08/18 01:09:02;;;;;;;;;;;;;;;25.84;47.23;99455.56;2085678;28;19966;-47
2022/08/18 01:10:04;;;;;;;;;;;;;;;25.83;47.23;99453.88;2089791;28;20357;-48
2022/08/18 01:11:04;;;;;;;;;;;;;;;25.82;47.08;99447.50;2082013;28;19916;-46
2022/08/18 01:12:05;;;;;;;;;;;;;;;25.82;47.14;99452.16;2085641;28;19923;-47
2022/08/18 01:13:05;;;;;;;;;;;;;;;25.82;47.30;99446.63;2085004;28;19961;-47
2022/08/18 01:14:07;;;;;;;;;;;;;;;25.82;47.08;99446.63;2084049;28;19936;-47
2022/08/18 01:15:09;;;;;;;;;;;;;;;25.82;47.14;99450.28;2087477;28;19923;-48
2022/08/18 01:22:47;;;;;;;;;;;;;;;25.79;47.62;99423.06;2082781;28;20171;-48
2022/08/18 01:23:48;;;;;;;;;;;;;;;25.79;47.61;99424.97;2084898;28;19916;-47
2022/08/18 01:26:15;;;;;;;;;;;;;;;25.79;47.47;99416.69;2070181;28;20008;-48
2022/08/18 01:27:17;;;;;;;;;;;;;;;25.80;47.53;99432.22;2082597;28;19991;-47
2022/08/18 01:28:20;;;;;;;;;;;;;;;25.79;47.53;99428.59;2085969;28;19916;-47
2022/08/18 01:29:20;;;;;;;;;;;;;;;25.79;47.59;99430.50;2084712;28;20738;-47
2022/08/18 01:30:24;;;;;;;;;;;;;;;25.79;47.55;99430.50;2085026;28;19913;-46
2022/08/18 01:31:28;;;;;;;;;;;;;;;25.80;47.31;99432.22;2087061;28;19920;-46
2022/08/18 01:32:29;;;;;;;;;;;;;;;25.80;47.29;99430.31;2087555;28;19912;-48
2022/08/18 01:33:31;;;;;;;;;;;;;;;25.80;47.19;99435.81;2073570;28;19951;-47
2022/08/18 01:34:32;;;;;;;;;;;;;;;25.81;47.24;99436.66;2077502;28;19912;-46
2022/08/18 01:35:34;;;;;;;;;;;;;;;25.80;47.42;99433.06;2085363;28;19920;-47
2022/08/18 01:36:36;;;;;;;;;;;;;;;25.80;47.16;99433.06;2083951;28;20247;-47
2022/08/18 01:37:36;;;;;;;;;;;;;;;25.81;47.51;99434.75;2085378;28;19913;-46
2022/08/18 01:38:39;;;;;;;;;;;;;;;25.80;47.16;99432.22;2085667;28;19917;-47
2022/08/18 01:39:39;;;;;;;;;;;;;;;25.80;47.30;99421.19;2076561;28;19917;-48
2022/08/18 01:40:41;;;;;;;;;;;;;;;25.80;47.32;99421.19;2076539;28;19955;-48
2022/08/18 01:41:42;;;;;;;;;;;;;;;25.80;47.23;99424.78;2085875;28;19912;-50
2022/08/18 01:42:44;;;;;;;;;;;;;;;25.80;47.29;99429.47;2085300;28;19916;-48
2022/08/18 01:43:45;;;;;;;;;;;;;;;25.80;47.26;99430.31;2085968;28;19951;-46
2022/08/18 01:44:46;;;;;;;;;;;;;;;25.80;47.50;99430.31;2083951;28;19917;-48
2022/08/18 01:45:47;;;;;;;;;;;;;;;25.79;47.26;99422.22;2085664;28;20214;-47
2022/08/18 01:46:47;;;;;;;;;;;;;;;25.80;47.21;99429.47;2093622;28;20355;-47
2022/08/18 01:47:49;;;;;;;;;;;;;;;25.79;47.39;99428.59;2090279;28;19920;-46
2022/08/18 01:48:51;;;;;;;;;;;;;;;25.80;47.54;99426.69;2087478;28;20276;-48
2022/08/18 01:49:52;;;;;;;;;;;;;;;25.80;47.24;99432.22;2086179;28;19919;-47
2022/08/18 01:50:55;;;;;;;;;;;;;;;25.80;47.18;99433.06;2085545;28;19927;-47
2022/08/18 01:51:56;;;;;;;;;;;;;;;25.80;47.23;99429.47;2085032;28;19986;-48
2022/08/18 01:52:56;;;;;;;;;;;;;;;25.80;47.33;99432.22;2088878;28;19927;-47
2022/08/18 01:53:57;;;;;;;;;;;;;;;25.79;47.27;99430.50;2083664;28;19912;-47
2022/08/18 01:54:57;;;;;;;;;;;;;;;25.80;47.59;99432.22;2084758;28;19923;-47
2022/08/18 01:55:58;;;;;;;;;;;;;;;25.80;47.58;99429.47;2087726;28;20466;-47
2022/08/18 01:56:58;;;;;;;;;;;;;;;25.79;47.29;99436.03;2088835;28;19916;-47
2022/08/18 01:58:00;;;;;;;;;;;;;;;25.79;47.37;99430.50;2086571;28;19916;-47
2022/08/18 01:59:00;;;;;;;;;;;;;;;25.79;47.59;99433.25;2084940;28;20150;-48
2022/08/18 02:00:01;;;;;;;;;;;;;;;25.79;47.53;99430.50;2084122;28;20359;-47
2022/08/18 02:01:02;;;;;;;;;;;;;;;25.79;47.55;99424.97;2086555;28;19920;-47
2022/08/18 02:02:02;;;;;;;;;;;;;;;25.78;47.45;99426.91;2085461;28;20264;-49
2022/08/18 02:03:07;;;;;;;;;;;;;;;25.80;47.38;99434.97;2082671;28;19913;-49
2022/08/18 02:04:08;;;;;;;;;;;;;;;25.79;47.59;99425.81;2085708;28;19920;-48
2022/08/18 02:05:11;;;;;;;;;;;;;;;25.79;47.37;99427.75;2085348;28;19963;-46
2022/08/18 02:06:13;;;;;;;;;;;;;;;25.79;47.69;99424.97;2083843;28;19916;-47
2022/08/18 02:07:13;;;;;;;;;;;;;;;25.79;47.69;99433.25;2089621;28;19912;-47
2022/08/18 02:08:14;;;;;;;;;;;;;;;25.78;47.60;99429.66;2086535;28;20239;-46
2022/08/18 02:09:14;;;;;;;;;;;;;;;25.79;47.63;99433.25;2084046;28;19905;-47
2022/08/18 02:10:15;;;;;;;;;;;;;;;25.77;47.63;99430.72;2085908;28;20308;-47
2022/08/18 02:11:15;;;;;;;;;;;;;;;25.78;47.58;99432.41;2086058;28;20031;-48
2022/08/18 02:12:15;;;;;;;;;;;;;;;25.78;47.56;99428.81;2089141;28;20241;-46
2022/08/18 02:13:15;;;;;;;;;;;;;;;25.77;47.84;99427.09;2083671;28;20007;-47
2022/08/18 02:14:16;;;;;;;;;;;;;;;25.77;47.98;99421.56;2084021;28;20054;-47
2022/08/18 02:15:16;;;;;;;;;;;;;;;25.76;47.91;99431.78;2089829;28;20397;-48
2022/08/18 02:16:16;;;;;;;;;;;;;;;25.77;47.77;99427.09;2084622;28;19927;-47
2022/08/18 02:17:17;;;;;;;;;;;;;;;25.77;47.99;99427.09;2083999;28;20013;-48
2022/08/18 02:18:18;;;;;;;;;;;;;;;25.76;48.05;99431.78;2089863;28;19916;-46
2022/08/18 02:19:19;;;;;;;;;;;;;;;25.76;47.86;99420.72;2085971;28;19958;-48
2022/08/18 02:20:19;;;;;;;;;;;;;;;25.75;47.84;99421.81;2088028;28;20007;-51
2022/08/18 02:21:20;;;;;;;;;;;;;;;25.75;47.73;99424.56;2089505;28;20015;-47
2022/08/18 02:22:20;;;;;;;;;;;;;;;25.76;47.94;99414.38;2084903;28;19923;-50
2022/08/18 02:23:21;;;;;;;;;;;;;;;25.75;48.11;99412.66;2086738;28;19913;-47
2022/08/18 02:24:22;;;;;;;;;;;;;;;25.75;47.86;99412.66;2086676;28;20203;-49
2022/08/18 02:25:22;;;;;;;;;;;;;;;25.75;48.06;99408.00;2084281;28;20346;-47
2022/08/18 02:26:23;;;;;;;;;;;;;;;25.75;48.01;99409.88;2089363;28;20017;-51
2022/08/18 02:27:23;;;;;;;;;;;;;;;25.75;47.74;99412.66;2086790;28;19912;-47
2022/08/18 02:28:23;;;;;;;;;;;;;;;25.75;48.07;99412.66;2088649;28;20741;-47
2022/08/18 02:29:24;;;;;;;;;;;;;;;25.75;47.91;99412.66;2089791;28;19919;-47
2022/08/18 02:30:24;;;;;;;;;;;;;;;25.75;47.70;99412.66;2086372;28;20415;-48
2022/08/18 02:31:24;;;;;;;;;;;;;;;25.74;47.73;99417.31;2089285;28;19920;-47
2022/08/18 02:32:25;;;;;;;;;;;;;;;25.75;47.74;99412.66;2091354;28;19917;-48
2022/08/18 02:33:25;;;;;;;;;;;;;;;25.75;47.96;99407.13;2090787;28;20245;-47
2022/08/18 02:34:26;;;;;;;;;;;;;;;25.75;47.86;99396.09;2080745;28;20001;-48
2022/08/18 02:35:26;;;;;;;;;;;;;;;25.76;48.08;99408.84;2088397;28;19999;-49
2022/08/18 02:36:27;;;;;;;;;;;;;;;25.75;48.07;99401.59;2088593;28;19919;-47
2022/08/18 02:37:29;;;;;;;;;;;;;;;25.76;48.06;99397.81;2085186;28;19923;-47
2022/08/18 02:38:30;;;;;;;;;;;;;;;25.75;47.93;99396.97;2082449;28;20619;-49
2022/08/18 02:39:32;;;;;;;;;;;;;;;25.76;47.66;99397.81;2096064;28;19956;-47
2022/08/18 02:40:34;;;;;;;;;;;;;;;25.75;47.93;99396.09;2086979;28;19947;-47
2022/08/18 02:41:35;;;;;;;;;;;;;;;25.75;47.84;99390.56;2089599;28;20083;-50
2022/08/18 02:42:37;;;;;;;;;;;;;;;25.74;47.94;99384.19;2083376;28;19916;-48
2022/08/18 02:43:38;;;;;;;;;;;;;;;25.76;47.74;99389.53;2084227;28;19912;-48
2022/08/18 02:44:38;;;;;;;;;;;;;;;25.75;47.84;99385.03;2091008;28;19930;-47
2022/08/18 02:45:38;;;;;;;;;;;;;;;25.75;48.01;99390.56;2090368;28;19916;-47
2022/08/18 02:46:39;;;;;;;;;;;;;;;25.74;48.02;99394.41;2085243;28;20047;-47
2022/08/18 02:47:39;;;;;;;;;;;;;;;25.75;48.02;99401.59;2088563;28;19916;-46
2022/08/18 02:48:40;;;;;;;;;;;;;;;25.75;48.04;99396.09;2088432;28;19923;-47
2022/08/18 02:49:40;;;;;;;;;;;;;;;25.74;47.85;99399.91;2088424;28;19908;-47
2022/08/18 02:50:46;;;;;;;;;;;;;;;25.74;47.97;99399.91;2089180;28;19947;-48
2022/08/18 02:51:46;;;;;;;;;;;;;;;25.74;48.03;99402.69;2081273;28;20006;-46
2022/08/18 02:52:47;;;;;;;;;;;;;;;25.74;47.75;99397.16;2085912;28;20003;-47
2022/08/18 02:53:48;;;;;;;;;;;;;;;25.75;47.71;99407.13;2083951;28;19923;-47
2022/08/18 02:54:48;;;;;;;;;;;;;;;25.75;47.80;99412.66;2083824;28;20316;-47
2022/08/18 02:55:48;;;;;;;;;;;;;;;25.74;48.05;99410.97;2086197;28;19920;-49
2022/08/18 02:56:51;;;;;;;;;;;;;;;25.73;48.18;99415.63;2091378;28;19995;-47
2022/08/18 02:57:51;;;;;;;;;;;;;;;25.74;47.92;99422.00;2087842;28;19932;-47
2022/08/18 02:58:53;;;;;;;;;;;;;;;25.73;48.12;99412.88;2084451;28;20287;-47
2022/08/18 02:59:54;;;;;;;;;;;;;;;25.73;47.97;99414.78;2084167;28;20219;-47
2022/08/18 03:00:54;;;;;;;;;;;;;;;25.74;48.14;99419.25;2085149;28;20001;-47
2022/08/18 03:01:55;;;;;;;;;;;;;;;25.73;48.01;99409.28;2083477;28;19923;-47
2022/08/18 03:02:55;;;;;;;;;;;;;;;25.72;48.24;99408.41;2089060;28;20003;-48
2022/08/18 03:03:56;;;;;;;;;;;;;;;25.73;48.29;99414.78;2086106;28;19916;-47
2022/08/18 03:04:57;;;;;;;;;;;;;;;25.72;48.23;99402.03;2090773;28;20007;-47
2022/08/18 03:05:57;;;;;;;;;;;;;;;25.71;48.33;99400.34;2083735;28;19916;-44
2022/08/18 03:06:59;;;;;;;;;;;;;;;25.72;48.31;99399.28;2076336;28;19923;-47
2022/08/18 03:08:00;;;;;;;;;;;;;;;25.71;48.35;99401.19;2079409;28;19917;-47
2022/08/18 03:09:00;;;;;;;;;;;;;;;25.71;48.26;99394.81;2087729;28;19916;-47
2022/08/18 03:10:00;;;;;;;;;;;;;;;25.71;48.14;99401.19;2090301;28;19940;-48
2022/08/18 03:11:01;;;;;;;;;;;;;;;25.71;48.18;99389.31;2085729;28;19912;-46
2022/08/18 03:12:02;;;;;;;;;;;;;;;25.70;48.12;99391.22;2088779;28;19989;-47
2022/08/18 03:13:02;;;;;;;;;;;;;;;25.71;48.35;99397.59;2089011;28;19965;-46
2022/08/18 03:14:04;;;;;;;;;;;;;;;25.71;48.29;99395.69;2084463;28;20634;-47
2022/08/18 03:15:04;;;;;;;;;;;;;;;25.72;48.32;99385.47;2086370;28;20211;-47
2022/08/18 03:16:05;;;;;;;;;;;;;;;25.72;48.28;99385.47;2088706;28;19931;-47
2022/08/18 03:17:07;;;;;;;;;;;;;;;25.71;48.32;99383.78;2084456;28;19978;-49
2022/08/18 03:18:07;;;;;;;;;;;;;;;25.72;48.26;99379.97;2086962;28;19928;-47
2022/08/18 03:19:08;;;;;;;;;;;;;;;25.72;48.00;99379.97;2086280;28;19916;-47
2022/08/18 03:20:08;;;;;;;;;;;;;;;25.71;47.89;99381.03;2088895;28;19916;-48
2022/08/18 03:21:12;;;;;;;;;;;;;;;25.71;48.20;99378.28;2092687;28;19915;-48
2022/08/18 03:22:13;;;;;;;;;;;;;;;25.71;47.99;99389.31;2082095;28;20249;-48
2022/08/18 03:23:13;;;;;;;;;;;;;;;25.72;48.23;99379.97;2085428;28;20232;-47
2022/08/18 03:24:14;;;;;;;;;;;;;;;25.72;48.19;99379.97;2086319;28;19921;-48
2022/08/18 03:25:14;;;;;;;;;;;;;;;25.72;47.97;99385.47;2081531;28;19951;-48
2022/08/18 03:26:15;;;;;;;;;;;;;;;25.72;47.96;99385.47;2080311;28;19917;-48
2022/08/18 03:27:15;;;;;;;;;;;;;;;25.72;48.20;99391.84;2089268;28;20497;-46
2022/08/18 03:28:16;;;;;;;;;;;;;;;25.72;48.16;99391.84;2086216;28;20311;-47
2022/08/18 03:29:16;;;;;;;;;;;;;;;25.72;47.90;99386.31;2092048;28;19918;-47
2022/08/18 03:30:17;;;;;;;;;;;;;;;25.71;47.91;99398.44;2085818;28;19916;-46
2022/08/18 03:31:19;;;;;;;;;;;;;;;25.71;47.88;99397.59;2074447;28;19972;-47
2022/08/18 03:32:19;;;;;;;;;;;;;;;25.72;47.86;99407.56;2076268;28;19909;-49
2022/08/18 03:33:20;;;;;;;;;;;;;;;25.72;48.03;99407.56;2084625;28;20379;-47
2022/08/18 03:34:20;;;;;;;;;;;;;;;25.73;48.16;99412.03;2087009;28;19917;-47
2022/08/18 03:35:21;;;;;;;;;;;;;;;25.72;48.12;99413.06;2090342;28;19904;-49
2022/08/18 03:36:23;;;;;;;;;;;;;;;25.72;48.15;99407.56;2089939;28;19923;-47
2022/08/18 03:37:23;;;;;;;;;;;;;;;25.72;48.09;99413.06;2094439;28;19961;-47
2022/08/18 03:38:23;;;;;;;;;;;;;;;25.72;47.96;99415.84;2085583;28;19962;-48
2022/08/18 03:39:26;;;;;;;;;;;;;;;25.72;48.09;99407.56;2086824;28;20311;-46
2022/08/18 03:40:26;;;;;;;;;;;;;;;25.72;47.95;99408.41;2087268;28;19923;-47
2022/08/18 03:41:27;;;;;;;;;;;;;;;25.71;47.95;99397.59;2086026;28;19923;-47
2022/08/18 03:42:28;;;;;;;;;;;;;;;25.71;48.13;99405.88;2085872;28;19916;-47
2022/08/18 03:43:30;;;;;;;;;;;;;;;25.72;48.00;99402.03;2087035;28;19912;-48
2022/08/18 03:44:35;;;;;;;;;;;;;;;25.71;47.94;99394.81;2085151;28;19917;-47
2022/08/18 03:45:35;;;;;;;;;;;;;;;25.72;48.17;99396.53;2083036;28;19967;-49
2022/08/18 03:46:36;;;;;;;;;;;;;;;25.72;48.27;99399.28;2077668;28;19955;-48
2022/08/18 03:47:36;;;;;;;;;;;;;;;25.72;48.05;99402.03;2077713;28;20345;-48
2022/08/18 03:48:39;;;;;;;;;;;;;;;25.70;47.96;99396.75;2080948;28;19917;-47
2022/08/18 03:49:40;;;;;;;;;;;;;;;25.71;48.32;99392.91;2088707;28;20322;-49
2022/08/18 03:50:41;;;;;;;;;;;;;;;25.70;47.98;99394.00;2077841;28;19916;-48
2022/08/18 03:51:42;;;;;;;;;;;;;;;25.70;48.26;99395.88;2077996;28;19959;-47
2022/08/18 03:52:47;;;;;;;;;;;;;;;25.71;48.28;99400.34;2077377;28;20391;-46
2022/08/18 03:53:48;;;;;;;;;;;;;;;25.70;48.13;99401.41;2078215;28;20720;-47
2022/08/18 03:54:48;;;;;;;;;;;;;;;25.68;48.31;99396.09;2075419;28;20297;-47
2022/08/18 03:55:48;;;;;;;;;;;;;;;25.69;48.43;99394.19;2077056;28;19920;-47
2022/08/18 03:56:49;;;;;;;;;;;;;;;25.69;48.25;99402.47;2078423;28;19916;-48
2022/08/18 03:57:51;;;;;;;;;;;;;;;25.69;48.43;99402.47;2076567;28;20350;-47
2022/08/18 03:58:54;;;;;;;;;;;;;;;25.69;48.34;99407.97;2078988;28;19913;-47
2022/08/18 03:59:55;;;;;;;;;;;;;;;25.68;48.48;99412.66;2085391;28;19920;-47
2022/08/18 04:00:55;;;;;;;;;;;;;;;25.69;48.56;99411.59;2082425;28;20440;-48
2022/08/18 04:01:55;;;;;;;;;;;;;;;25.69;48.29;99419.88;2079075;28;19963;-47
2022/08/18 04:02:58;;;;;;;;;;;;;;;25.66;48.42;99418.38;2075983;28;19917;-47
2022/08/18 04:04:01;;;;;;;;;;;;;;;25.69;48.57;99419.03;2077939;28;19917;-47
2022/08/18 04:05:02;;;;;;;;;;;;;;;25.68;48.22;99423.69;2079015;28;19917;-47
2022/08/18 04:06:02;;;;;;;;;;;;;;;25.69;48.21;99419.88;2075911;28;19916;-47
2022/08/18 04:07:07;;;;;;;;;;;;;;;25.69;48.42;99430.06;2079014;28;19913;-47
2022/08/18 04:08:07;;;;;;;;;;;;;;;25.69;48.33;99428.16;2077689;28;19917;-47
2022/08/18 04:09:10;;;;;;;;;;;;;;;25.68;48.38;99429.22;2077096;28;20706;-47
2022/08/18 04:10:10;;;;;;;;;;;;;;;25.68;48.15;99426.47;2078775;28;19975;-48
2022/08/18 04:11:11;;;;;;;;;;;;;;;25.69;48.30;99424.53;2076560;28;19921;-48
2022/08/18 04:12:14;;;;;;;;;;;;;;;25.69;48.19;99419.03;2078256;28;20305;-46
2022/08/18 04:13:14;;;;;;;;;;;;;;;25.69;48.29;99413.50;2077928;28;19921;-47
2022/08/18 04:14:16;;;;;;;;;;;;;;;25.67;48.19;99411.81;2077869;28;19919;-47
2022/08/18 04:15:16;;;;;;;;;;;;;;;25.69;48.23;99405.22;2078818;28;20147;-47
2022/08/18 04:16:17;;;;;;;;;;;;;;;25.68;48.25;99407.13;2076851;28;20345;-48
2022/08/18 04:17:23;;;;;;;;;;;;;;;25.67;48.50;99403.53;2076442;28;19970;-47
2022/08/18 04:18:23;;;;;;;;;;;;;;;25.67;48.25;99403.53;2072265;28;19917;-50
2022/08/18 04:19:23;;;;;;;;;;;;;;;25.69;48.36;99402.47;2077492;28;20627;-47
2022/08/18 04:20:24;;;;;;;;;;;;;;;25.69;48.21;99402.47;2075328;28;20448;-48
2022/08/18 04:21:24;;;;;;;;;;;;;;;25.67;48.57;99406.31;2077135;28;20354;-47
2022/08/18 04:22:25;;;;;;;;;;;;;;;25.68;48.55;99409.91;2076922;28;19920;-47
2022/08/18 04:23:25;;;;;;;;;;;;;;;25.67;48.28;99406.31;2075593;28;19924;-47
2022/08/18 04:24:27;;;;;;;;;;;;;;;25.67;48.45;99406.31;2079397;28;19924;-47
2022/08/18 04:25:29;;;;;;;;;;;;;;;25.67;48.38;99409.06;2075775;28;19916;-47
2022/08/18 04:26:30;;;;;;;;;;;;;;;25.67;48.19;99416.47;2077419;28;19917;-47
2022/08/18 04:27:31;;;;;;;;;;;;;;;25.69;48.14;99413.50;2076053;28;19950;-47
2022/08/18 04:28:31;;;;;;;;;;;;;;;25.68;48.34;99418.19;2076576;28;19931;-49
2022/08/18 04:29:32;;;;;;;;;;;;;;;25.68;48.19;99415.41;2075167;28;19913;-47
2022/08/18 04:30:32;;;;;;;;;;;;;;;25.67;48.15;99417.34;2078768;28;20325;-48
2022/08/18 04:31:32;;;;;;;;;;;;;;;25.68;48.41;99418.19;2081103;28;19905;-47
2022/08/18 04:32:33;;;;;;;;;;;;;;;25.67;48.12;99417.34;2075058;28;20255;-46
2022/08/18 04:33:33;;;;;;;;;;;;;;;25.69;48.40;99421.78;2075965;28;20027;-47
2022/08/18 04:34:33;;;;;;;;;;;;;;;25.67;48.41;99420.09;2079075;28;20011;-47
2022/08/18 04:35:34;;;;;;;;;;;;;;;25.67;48.22;99411.81;2077087;28;20024;-47
2022/08/18 04:36:35;;;;;;;;;;;;;;;25.67;48.45;99420.09;2078370;28;19920;-47
2022/08/18 04:37:36;;;;;;;;;;;;;;;25.67;48.26;99422.84;2079656;28;19917;-49
2022/08/18 04:38:37;;;;;;;;;;;;;;;25.68;48.40;99418.19;2078248;28;19920;-47
2022/08/18 04:39:38;;;;;;;;;;;;;;;25.67;48.44;99417.34;2081106;28;19917;-47
2022/08/18 04:40:40;;;;;;;;;;;;;;;25.67;48.22;99413.72;2076312;28;19917;-46
2022/08/18 04:41:42;;;;;;;;;;;;;;;25.67;48.18;99422.84;2076168;28;19917;-47
2022/08/18 04:42:43;;;;;;;;;;;;;;;25.67;48.38;99416.47;2076207;28;19963;-48
2022/08/18 04:43:44;;;;;;;;;;;;;;;25.67;48.21;99420.09;2077612;28;19912;-48
2022/08/18 04:44:44;;;;;;;;;;;;;;;25.66;48.54;99425.81;2076270;28;20901;-47
2022/08/18 04:45:44;;;;;;;;;;;;;;;25.66;48.42;99420.28;2074921;28;19997;-47
2022/08/18 04:46:50;;;;;;;;;;;;;;;25.65;48.32;99424.97;2085046;28;20462;-47
2022/08/18 04:47:52;;;;;;;;;;;;;;;25.65;48.60;99427.72;2084722;28;19924;-47
2022/08/18 04:48:55;;;;;;;;;;;;;;;25.65;48.53;99424.13;2082722;28;19921;-47
2022/08/18 04:49:55;;;;;;;;;;;;;;;25.64;48.42;99423.25;2084435;28;20072;-47
2022/08/18 04:50:55;;;;;;;;;;;;;;;25.65;48.54;99429.66;2085849;28;19924;-47
2022/08/18 04:54:38;;;;;;;;;;;;;;;25.64;48.51;99422.41;2085032;28;19916;-48
2022/08/18 04:55:44;;;;;;;;;;;;;;;25.64;48.73;99422.41;2084914;28;19995;-47
2022/08/18 04:56:44;;;;;;;;;;;;;;;25.64;48.44;99423.25;2080953;28;19974;-48
2022/08/18 04:57:45;;;;;;;;;;;;;;;25.64;48.59;99428.78;2087173;28;19946;-47
2022/08/18 04:58:50;;;;;;;;;;;;;;;25.65;48.47;99429.66;2083471;28;19919;-48
2022/08/18 04:59:51;;;;;;;;;;;;;;;25.64;48.41;99427.94;2085325;28;19916;-47
2022/08/18 05:00:58;;;;;;;;;;;;;;;25.64;48.66;99427.94;2085679;28;20838;-47
2022/08/18 05:02:00;;;;;;;;;;;;;;;25.64;48.66;99434.28;2085250;28;19917;-48
2022/08/18 05:03:00;;;;;;;;;;;;;;;25.64;48.58;99437.06;2084722;28;19916;-47
2022/08/18 05:04:01;;;;;;;;;;;;;;;25.65;48.63;99437.94;2084710;28;20672;-47
2022/08/18 05:05:02;;;;;;;;;;;;;;;25.64;48.40;99434.28;2084762;28;19916;-47
2022/08/18 05:06:03;;;;;;;;;;;;;;;25.65;48.40;99433.25;2088290;28;19923;-47
2022/08/18 05:07:04;;;;;;;;;;;;;;;25.64;48.62;99434.28;2077190;28;19916;-48
2022/08/18 05:08:05;;;;;;;;;;;;;;;25.65;48.53;99430.50;2075483;28;20015;-49
2022/08/18 05:09:06;;;;;;;;;;;;;;;25.65;48.60;99435.16;2076619;28;19913;-47
2022/08/18 05:10:07;;;;;;;;;;;;;;;25.64;48.56;99434.28;2076157;28;20043;-48
2022/08/18 05:11:08;;;;;;;;;;;;;;;25.65;48.42;99441.53;2086463;28;19923;-46
2022/08/18 05:12:12;;;;;;;;;;;;;;;25.65;48.65;99440.69;2083232;28;19923;-47
2022/08/18 05:13:16;;;;;;;;;;;;;;;25.64;48.70;99445.34;2086779;28;20224;-47
2022/08/18 05:14:17;;;;;;;;;;;;;;;25.65;48.49;99444.28;2084268;28;19916;-47
2022/08/18 05:15:18;;;;;;;;;;;;;;;25.65;48.52;99452.56;2087271;28;19912;-48
2022/08/18 05:16:18;;;;;;;;;;;;;;;25.65;48.38;99451.72;2086235;28;19959;-46
2022/08/18 05:17:18;;;;;;;;;;;;;;;25.64;48.48;99448.09;2085453;28;20233;-47
2022/08/18 05:18:20;;;;;;;;;;;;;;;25.65;48.47;99455.34;2086966;28;19962;-47
2022/08/18 05:19:21;;;;;;;;;;;;;;;25.64;48.40;99448.09;2084603;28;20027;-47
2022/08/18 05:20:22;;;;;;;;;;;;;;;25.65;48.29;99446.22;2084602;28;19932;-51
2022/08/18 05:21:24;;;;;;;;;;;;;;;25.65;48.39;99451.72;2085267;28;20751;-48
2022/08/18 05:22:24;;;;;;;;;;;;;;;25.65;48.46;99451.72;2084039;28;19954;-48
2022/08/18 05:23:25;;;;;;;;;;;;;;;25.64;48.62;99450.00;2086881;28;19931;-46
2022/08/18 05:24:27;;;;;;;;;;;;;;;25.65;48.45;99460.00;2085682;28;19959;-46
2022/08/18 05:25:28;;;;;;;;;;;;;;;25.64;48.42;99455.53;2081953;28;19917;-49
2022/08/18 05:26:28;;;;;;;;;;;;;;;25.64;48.38;99456.38;2076020;28;20286;-48
2022/08/18 05:27:34;;;;;;;;;;;;;;;25.64;48.39;99447.25;2075583;28;19947;-49
2022/08/18 05:28:35;;;;;;;;;;;;;;;25.64;48.42;99456.38;2074394;28;20205;-46
2022/08/18 05:29:36;;;;;;;;;;;;;;;25.64;48.58;99461.91;2076620;28;19917;-47
2022/08/18 05:30:36;;;;;;;;;;;;;;;25.63;48.51;99454.69;2086728;28;19916;-46